Time;durP1;ratioP1;P1;durP2;ratioP2;P2;SDS_P1;SDS_P2;PMS_P1;PMS_P2;Temp;Humidity;BMP_temperature;BMP_pressure;BME280_temperature;BME280_humidity;BME280_pressure;Samples;Min_cycle;Max_cycle;Signal;HPM_P1;HPM_P2
2024/03/26 00:02:21;;;;;;;9.73;3.40;;;;;;;;;;5136872;28;20053;-55
2024/03/26 00:04:47;;;;;;;11.43;3.58;;;;;;;;;;5135721;28;20047;-54
2024/03/26 00:07:12;;;;;;;15.13;4.20;;;;;;;;;;5137001;28;20047;-57
2024/03/26 00:09:37;;;;;;;9.93;3.30;;;;;;;;;;5136709;28;20031;-55
2024/03/26 00:12:03;;;;;;;11.80;3.57;;;;;;;;;;5136382;28;20053;-56
2024/03/26 00:14:28;;;;;;;13.17;3.87;;;;;;;;;;5132284;28;20035;-59
2024/03/26 00:16:54;;;;;;;17.87;4.60;;;;;;;;;;5125371;28;20091;-57
2024/03/26 00:19:19;;;;;;;12.63;3.42;;;;;;;;;;5135283;28;20027;-54
2024/03/26 00:21:45;;;;;;;9.80;3.53;;;;;;;;;;5136788;28;20055;-56
2024/03/26 00:24:10;;;;;;;12.20;3.33;;;;;;;;;;5125840;28;20024;-54
2024/03/26 00:26:36;;;;;;;8.60;3.70;;;;;;;;;;5136260;28;20047;-54
2024/03/26 00:29:02;;;;;;;9.40;3.70;;;;;;;;;;5115127;28;20178;-54
2024/03/26 00:31:33;;;;;;;17.33;2.95;;;;;;;;;;5134118;28;20043;-56
2024/03/26 00:34:02;;;;;;;16.77;3.35;;;;;;;;;;5133471;28;20023;-57
2024/03/26 00:36:28;;;;;;;6.70;2.80;;;;;;;;;;5134739;28;20027;-56
2024/03/26 00:38:53;;;;;;;14.27;3.77;;;;;;;;;;5133516;28;20061;-55
2024/03/26 00:41:19;;;;;;;15.27;4.33;;;;;;;;;;5134872;28;20252;-57
2024/03/26 00:43:44;;;;;;;10.30;3.27;;;;;;;;;;5128053;28;20249;-55
2024/03/26 00:46:09;;;;;;;10.57;4.00;;;;;;;;;;5135515;28;20043;-56
2024/03/26 00:48:35;;;;;;;15.77;4.10;;;;;;;;;;5135033;28;20028;-56
2024/03/26 00:51:00;;;;;;;13.00;3.60;;;;;;;;;;5135553;28;20087;-56
2024/03/26 00:53:26;;;;;;;14.70;3.80;;;;;;;;;;5134257;28;20271;-53
2024/03/26 00:55:51;;;;;;;15.03;3.70;;;;;;;;;;5134694;28;20123;-54
2024/03/26 00:58:17;;;;;;;15.67;4.30;;;;;;;;;;5135173;28;20255;-56
2024/03/26 01:00:42;;;;;;;10.20;3.03;;;;;;;;;;5135241;28;20032;-57
2024/03/26 01:03:08;;;;;;;8.55;3.15;;;;;;;;;;5134596;28;20050;-53
2024/03/26 01:05:33;;;;;;;11.83;3.27;;;;;;;;;;5130966;28;20028;-56
2024/03/26 01:07:59;;;;;;;10.50;3.60;;;;;;;;;;5129004;28;20034;-54
2024/03/26 01:10:24;;;;;;;13.57;3.73;;;;;;;;;;5134252;28;20106;-58
2024/03/26 01:12:50;;;;;;;9.90;3.50;;;;;;;;;;5135424;28;20256;-58
2024/03/26 01:15:16;;;;;;;16.50;3.30;;;;;;;;;;5133960;28;20057;-55
2024/03/26 01:17:41;;;;;;;13.32;3.53;;;;;;;;;;5129446;28;20290;-55
2024/03/26 01:20:07;;;;;;;16.27;3.40;;;;;;;;;;5134977;28;20054;-54
2024/03/26 01:22:33;;;;;;;7.22;3.47;;;;;;;;;;5135005;28;20083;-54
2024/03/26 01:24:58;;;;;;;17.13;3.60;;;;;;;;;;5134886;28;20031;-55
2024/03/26 01:27:23;;;;;;;11.13;3.40;;;;;;;;;;5134485;28;20049;-53
2024/03/26 01:29:48;;;;;;;11.37;3.57;;;;;;;;;;5135282;28;20043;-57
2024/03/26 01:32:13;;;;;;;8.10;3.27;;;;;;;;;;5134929;28;20028;-55
2024/03/26 01:34:39;;;;;;;11.83;3.30;;;;;;;;;;5134934;28;20042;-55
2024/03/26 01:37:04;;;;;;;11.73;3.67;;;;;;;;;;5123694;28;20264;-55
2024/03/26 01:39:30;;;;;;;12.73;3.57;;;;;;;;;;5134790;28;20051;-57
2024/03/26 01:41:55;;;;;;;10.67;3.90;;;;;;;;;;5134853;28;20282;-58
2024/03/26 01:44:21;;;;;;;13.30;3.40;;;;;;;;;;5134203;28;20053;-55
2024/03/26 01:46:47;;;;;;;9.80;3.60;;;;;;;;;;5108904;28;20036;-58
2024/03/26 01:49:13;;;;;;;12.57;3.30;;;;;;;;;;5134665;28;20279;-55
2024/03/26 01:51:39;;;;;;;10.52;3.30;;;;;;;;;;5134370;28;20119;-53
2024/03/26 01:54:05;;;;;;;18.60;4.05;;;;;;;;;;5128611;28;20115;-54
2024/03/26 01:56:31;;;;;;;10.57;3.40;;;;;;;;;;5117937;28;20036;-55
2024/03/26 01:58:57;;;;;;;10.43;3.50;;;;;;;;;;5126339;28;20035;-55
2024/03/26 02:01:23;;;;;;;10.27;3.47;;;;;;;;;;5135022;28;20043;-56
2024/03/26 02:03:49;;;;;;;12.93;3.17;;;;;;;;;;5131638;28;20087;-55
2024/03/26 02:06:15;;;;;;;9.82;3.30;;;;;;;;;;5121026;28;20058;-55
2024/03/26 02:08:41;;;;;;;16.48;4.05;;;;;;;;;;5132089;28;20055;-55
2024/03/26 02:11:07;;;;;;;10.38;3.20;;;;;;;;;;5134492;28;20047;-54
2024/03/26 02:13:33;;;;;;;8.98;4.30;;;;;;;;;;5133624;28;20028;-55
2024/03/26 02:15:58;;;;;;;9.33;3.77;;;;;;;;;;5124383;28;20058;-54
2024/03/26 02:18:24;;;;;;;9.95;3.90;;;;;;;;;;5132429;28;20114;-54
2024/03/26 02:20:49;;;;;;;10.03;3.43;;;;;;;;;;5134691;28;20035;-55
2024/03/26 02:23:21;;;;;;;13.53;3.60;;;;;;;;;;5134589;28;20324;-55
2024/03/26 02:25:47;;;;;;;8.90;3.25;;;;;;;;;;5130159;28;20024;-53
2024/03/26 02:28:12;;;;;;;14.67;3.87;;;;;;;;;;5134370;28;20080;-56
2024/03/26 02:30:38;;;;;;;9.13;3.43;;;;;;;;;;5134252;28;20286;-52
2024/03/26 02:33:03;;;;;;;14.48;4.20;;;;;;;;;;5134326;28;20032;-57
2024/03/26 02:35:29;;;;;;;13.93;3.63;;;;;;;;;;5133795;28;20023;-54
2024/03/26 02:37:54;;;;;;;14.47;3.90;;;;;;;;;;5134044;28;20016;-54
2024/03/26 02:40:19;;;;;;;13.97;3.60;;;;;;;;;;5134189;28;20063;-55
2024/03/26 02:42:45;;;;;;;12.10;3.40;;;;;;;;;;5134189;28;20057;-56
2024/03/26 02:45:12;;;;;;;9.52;4.00;;;;;;;;;;5134187;28;20035;-57
2024/03/26 02:47:37;;;;;;;10.10;4.18;;;;;;;;;;5126386;28;20039;-55
2024/03/26 02:50:02;;;;;;;14.77;4.13;;;;;;;;;;5134045;28;20059;-52
2024/03/26 02:52:28;;;;;;;9.57;4.25;;;;;;;;;;5134271;28;20040;-57
2024/03/26 02:54:53;;;;;;;7.87;3.67;;;;;;;;;;5124116;28;20031;-55
2024/03/26 02:57:19;;;;;;;11.95;3.28;;;;;;;;;;5133709;28;20035;-56
2024/03/26 02:59:45;;;;;;;10.87;3.93;;;;;;;;;;5135898;28;20098;-56
2024/03/26 03:02:10;;;;;;;9.87;3.43;;;;;;;;;;5138135;28;20031;-56
2024/03/26 03:04:36;;;;;;;11.87;3.63;;;;;;;;;;5137563;28;20283;-55
2024/03/26 03:07:01;;;;;;;10.80;3.60;;;;;;;;;;5137005;28;20023;-52
2024/03/26 03:09:27;;;;;;;23.17;3.57;;;;;;;;;;5137947;28;20275;-57
2024/03/26 03:11:52;;;;;;;9.60;3.60;;;;;;;;;;5138051;28;20091;-56
2024/03/26 03:14:18;;;;;;;10.75;4.05;;;;;;;;;;5137762;28;20023;-54
2024/03/26 03:16:43;;;;;;;10.53;3.87;;;;;;;;;;5137074;28;20043;-57
2024/03/26 03:19:09;;;;;;;14.82;3.65;;;;;;;;;;5137873;28;20047;-57
2024/03/26 03:21:34;;;;;;;8.75;2.75;;;;;;;;;;5136346;28;20027;-56
2024/03/26 03:24:00;;;;;;;9.13;3.43;;;;;;;;;;5135932;28;20055;-56
2024/03/26 03:26:25;;;;;;;11.70;3.60;;;;;;;;;;5131089;28;20357;-57
2024/03/26 03:28:51;;;;;;;9.87;3.73;;;;;;;;;;5128941;28;20031;-57
2024/03/26 03:31:16;;;;;;;9.77;3.67;;;;;;;;;;5136070;28;20058;-53
2024/03/26 03:33:41;;;;;;;11.67;3.90;;;;;;;;;;5136020;28;20028;-55
2024/03/26 03:36:07;;;;;;;12.73;4.30;;;;;;;;;;5121007;28;20081;-54
2024/03/26 03:38:32;;;;;;;7.50;2.90;;;;;;;;;;5130206;28;20031;-55
2024/03/26 03:40:58;;;;;;;14.27;3.93;;;;;;;;;;5137293;28;20270;-55
2024/03/26 03:43:23;;;;;;;16.00;3.87;;;;;;;;;;5137638;28;20028;-53
2024/03/26 03:45:48;;;;;;;6.63;2.97;;;;;;;;;;5127515;28;20256;-53
2024/03/26 03:48:14;;;;;;;7.10;3.20;;;;;;;;;;5130335;28;20032;-56
2024/03/26 03:50:40;;;;;;;8.80;3.77;;;;;;;;;;5135549;28;20044;-53
2024/03/26 03:53:05;;;;;;;14.00;3.75;;;;;;;;;;5136114;28;20085;-55
2024/03/26 03:55:30;;;;;;;6.77;3.63;;;;;;;;;;5136797;28;20049;-56
2024/03/26 03:57:57;;;;;;;8.70;2.67;;;;;;;;;;5133306;28;20045;-53
2024/03/26 04:00:22;;;;;;;15.70;4.50;;;;;;;;;;5135098;28;20032;-52
2024/03/26 04:02:47;;;;;;;9.80;3.73;;;;;;;;;;5137178;28;20268;-54
2024/03/26 04:05:13;;;;;;;11.45;3.25;;;;;;;;;;5132416;28;20023;-56
2024/03/26 04:07:38;;;;;;;11.63;3.50;;;;;;;;;;5135952;28;20047;-56
2024/03/26 04:10:04;;;;;;;17.63;4.03;;;;;;;;;;5136566;28;20027;-54
2024/03/26 04:12:29;;;;;;;10.10;3.70;;;;;;;;;;5136806;28;20285;-55
2024/03/26 04:14:55;;;;;;;7.00;3.00;;;;;;;;;;5132627;28;20049;-57
2024/03/26 04:17:21;;;;;;;12.10;3.60;;;;;;;;;;5135031;28;20032;-56
2024/03/26 04:19:47;;;;;;;9.93;3.60;;;;;;;;;;5136525;28;20033;-54
2024/03/26 04:22:12;;;;;;;11.67;3.77;;;;;;;;;;5134235;27;20035;-56
2024/03/26 04:24:38;;;;;;;12.13;3.97;;;;;;;;;;5129290;28;20471;-56
2024/03/26 04:27:03;;;;;;;12.53;4.43;;;;;;;;;;5127039;28;20099;-57
2024/03/26 04:29:29;;;;;;;6.38;3.05;;;;;;;;;;5133346;28;20039;-52
2024/03/26 04:31:54;;;;;;;8.83;4.13;;;;;;;;;;5136322;28;20043;-56
2024/03/26 04:34:20;;;;;;;9.93;3.60;;;;;;;;;;5122756;28;20107;-56
2024/03/26 04:36:45;;;;;;;11.53;4.47;;;;;;;;;;5132996;28;20039;-54
2024/03/26 04:39:11;;;;;;;12.40;4.07;;;;;;;;;;5136282;28;20043;-56
2024/03/26 04:41:37;;;;;;;10.32;3.60;;;;;;;;;;5136288;28;20264;-56
2024/03/26 04:44:03;;;;;;;8.67;3.47;;;;;;;;;;5132163;28;20039;-55
2024/03/26 04:46:28;;;;;;;7.53;3.93;;;;;;;;;;5122269;28;20057;-59
2024/03/26 04:48:53;;;;;;;11.53;4.17;;;;;;;;;;5129698;28;20344;-59
2024/03/26 04:51:20;;;;;;;11.23;3.40;;;;;;;;;;5136078;28;20032;-54
2024/03/26 04:53:46;;;;;;;19.05;4.22;;;;;;;;;;5135923;28;20035;-55
2024/03/26 04:56:13;;;;;;;10.20;3.75;;;;;;;;;;5128127;28;20043;-54
2024/03/26 04:58:40;;;;;;;9.85;3.63;;;;;;;;;;5135427;28;20035;-58
2024/03/26 05:01:05;;;;;;;11.48;3.70;;;;;;;;;;5136058;28;20084;-56
2024/03/26 05:03:30;;;;;;;9.00;3.27;;;;;;;;;;5135880;28;20024;-55
2024/03/26 05:05:56;;;;;;;11.10;3.43;;;;;;;;;;5131052;28;20034;-56
2024/03/26 05:08:21;;;;;;;14.07;4.90;;;;;;;;;;5133675;28;20027;-55
2024/03/26 05:10:47;;;;;;;14.13;4.17;;;;;;;;;;5135644;28;20039;-56
2024/03/26 05:13:13;;;;;;;10.57;4.23;;;;;;;;;;5135707;28;20348;-57
2024/03/26 05:15:39;;;;;;;7.13;3.85;;;;;;;;;;5127578;28;20035;-54
2024/03/26 05:18:06;;;;;;;16.38;3.80;;;;;;;;;;5135154;28;20053;-59
2024/03/26 05:20:35;;;;;;;12.00;3.50;;;;;;;;;;5135699;28;20039;-57
2024/03/26 05:23:01;;;;;;;5.70;3.28;;;;;;;;;;5134777;28;20069;-56
2024/03/26 05:25:26;;;;;;;14.23;3.93;;;;;;;;;;5135429;28;20036;-57
2024/03/26 05:27:52;;;;;;;19.00;4.40;;;;;;;;;;5127463;28;20340;-56
2024/03/26 05:30:17;;;;;;;10.10;3.47;;;;;;;;;;5135419;28;20035;-55
2024/03/26 05:32:42;;;;;;;11.93;4.50;;;;;;;;;;5135334;28;20256;-57
2024/03/26 05:35:08;;;;;;;12.85;4.30;;;;;;;;;;5127839;28;20058;-55
2024/03/26 05:37:35;;;;;;;10.83;3.87;;;;;;;;;;5125903;28;20032;-55
2024/03/26 05:40:01;;;;;;;12.63;4.35;;;;;;;;;;5135296;28;20045;-59
2024/03/26 05:42:26;;;;;;;10.63;3.70;;;;;;;;;;5134730;28;20027;-57
2024/03/26 05:44:52;;;;;;;8.33;3.87;;;;;;;;;;5128831;28;20271;-56
2024/03/26 05:47:17;;;;;;;10.63;4.23;;;;;;;;;;5131245;28;20035;-55
2024/03/26 05:49:42;;;;;;;9.17;3.23;;;;;;;;;;5132174;28;20343;-53
2024/03/26 05:52:08;;;;;;;9.00;3.55;;;;;;;;;;5133270;28;20040;-52
2024/03/26 05:54:34;;;;;;;12.53;4.57;;;;;;;;;;5133297;28;20035;-52
2024/03/26 05:56:59;;;;;;;10.68;3.88;;;;;;;;;;5117463;28;20027;-56
2024/03/26 05:59:25;;;;;;;9.87;3.80;;;;;;;;;;5125118;28;20044;-56
2024/03/26 06:01:50;;;;;;;10.35;3.22;;;;;;;;;;5133632;28;20024;-56
2024/03/26 06:04:16;;;;;;;11.47;3.20;;;;;;;;;;5135209;28;20062;-54
2024/03/26 06:06:41;;;;;;;11.87;3.57;;;;;;;;;;5128020;28;20272;-55
2024/03/26 06:09:08;;;;;;;10.07;4.20;;;;;;;;;;5134747;28;20032;-56
2024/03/26 06:11:33;;;;;;;8.68;4.20;;;;;;;;;;5133565;28;20092;-56
2024/03/26 06:13:59;;;;;;;14.70;3.80;;;;;;;;;;5134950;28;20036;-56
2024/03/26 06:16:24;;;;;;;9.43;3.47;;;;;;;;;;5125766;28;20019;-54
2024/03/26 06:18:49;;;;;;;13.73;4.03;;;;;;;;;;5128811;28;20264;-59
2024/03/26 06:21:15;;;;;;;6.97;3.10;;;;;;;;;;5132153;28;20032;-54
2024/03/26 06:23:41;;;;;;;15.10;4.57;;;;;;;;;;5130235;28;20111;-56
2024/03/26 06:26:06;;;;;;;17.73;4.03;;;;;;;;;;5133565;28;20024;-54
2024/03/26 06:28:32;;;;;;;13.97;3.83;;;;;;;;;;5132801;28;20038;-55
2024/03/26 06:30:57;;;;;;;18.47;3.80;;;;;;;;;;5130742;28;20264;-56
2024/03/26 06:33:23;;;;;;;13.38;3.53;;;;;;;;;;5135039;28;20472;-52
2024/03/26 06:35:48;;;;;;;10.83;4.00;;;;;;;;;;5134983;28;20059;-55
2024/03/26 06:38:14;;;;;;;10.77;3.28;;;;;;;;;;5138528;28;20673;-53
2024/03/26 06:40:39;;;;;;;7.00;3.50;;;;;;;;;;5134883;28;20058;-55
2024/03/26 06:43:05;;;;;;;11.68;3.92;;;;;;;;;;5138986;28;20053;-53
2024/03/26 06:45:31;;;;;;;21.67;4.83;;;;;;;;;;5136129;28;20045;-54
2024/03/26 06:47:56;;;;;;;10.63;3.60;;;;;;;;;;5131967;28;20268;-56
2024/03/26 06:50:22;;;;;;;9.77;3.78;;;;;;;;;;5135214;28;20039;-56
2024/03/26 06:52:49;;;;;;;10.30;4.00;;;;;;;;;;5120805;28;20042;-55
2024/03/26 06:55:16;;;;;;;9.70;4.00;;;;;;;;;;5135722;28;20040;-56
2024/03/26 06:57:42;;;;;;;14.20;3.47;;;;;;;;;;5136916;28;20024;-57
2024/03/26 07:00:08;;;;;;;12.15;3.88;;;;;;;;;;5124033;28;20040;-56
2024/03/26 07:02:35;;;;;;;13.07;3.95;;;;;;;;;;5120045;28;20032;-53
2024/03/26 07:05:01;;;;;;;13.35;3.55;;;;;;;;;;5132525;28;20035;-56
2024/03/26 07:07:26;;;;;;;16.48;3.95;;;;;;;;;;5137136;28;20074;-55
2024/03/26 07:09:52;;;;;;;9.03;3.17;;;;;;;;;;5137964;28;20035;-57
2024/03/26 07:12:18;;;;;;;11.30;5.03;;;;;;;;;;5136996;28;20028;-57
2024/03/26 07:14:44;;;;;;;7.80;3.60;;;;;;;;;;5115692;28;20047;-56
2024/03/26 07:17:09;;;;;;;7.05;3.22;;;;;;;;;;5136473;28;20096;-56
2024/03/26 07:19:35;;;;;;;10.77;3.55;;;;;;;;;;5123258;28;20038;-55
2024/03/26 07:22:00;;;;;;;9.63;3.43;;;;;;;;;;5137930;28;20086;-54
2024/03/26 07:24:25;;;;;;;8.37;3.60;;;;;;;;;;5137777;28;20260;-58
2024/03/26 07:26:51;;;;;;;5.77;2.97;;;;;;;;;;5130622;28;20038;-56
2024/03/26 07:29:16;;;;;;;8.50;3.63;;;;;;;;;;5128848;28;20051;-56
2024/03/26 07:31:41;;;;;;;15.13;3.57;;;;;;;;;;5134063;28;20056;-61
2024/03/26 07:34:07;;;;;;;14.20;3.58;;;;;;;;;;5131463;28;20034;-56
2024/03/26 07:36:32;;;;;;;11.00;3.27;;;;;;;;;;5119886;28;20031;-56
2024/03/26 07:38:58;;;;;;;8.07;3.10;;;;;;;;;;5124115;28;20024;-54
2024/03/26 07:41:24;;;;;;;11.43;3.17;;;;;;;;;;5134766;28;20035;-57
2024/03/26 07:43:50;;;;;;;7.82;3.80;;;;;;;;;;5135023;28;20037;-57
2024/03/26 07:46:15;;;;;;;7.47;3.37;;;;;;;;;;5118611;28;20036;-59
2024/03/26 07:48:40;;;;;;;8.07;3.20;;;;;;;;;;5131485;28;20035;-55
2024/03/26 07:51:06;;;;;;;9.07;3.53;;;;;;;;;;5128584;28;20130;-57
2024/03/26 07:53:32;;;;;;;12.35;3.83;;;;;;;;;;5133128;28;20028;-58
2024/03/26 07:55:57;;;;;;;12.80;3.90;;;;;;;;;;5133294;28;20028;-58
2024/03/26 07:58:23;;;;;;;9.38;3.42;;;;;;;;;;5128608;28;20040;-56
2024/03/26 08:00:48;;;;;;;6.63;3.50;;;;;;;;;;5133973;28;20035;-57
2024/03/26 08:03:14;;;;;;;8.27;4.17;;;;;;;;;;5135906;28;20063;-55
2024/03/26 08:05:40;;;;;;;6.93;3.60;;;;;;;;;;5132741;28;20032;-58
2024/03/26 08:08:06;;;;;;;14.10;3.58;;;;;;;;;;5126635;28;20077;-55
2024/03/26 08:10:31;;;;;;;9.80;3.70;;;;;;;;;;5137016;28;20031;-56
2024/03/26 08:12:57;;;;;;;18.20;3.70;;;;;;;;;;5135091;28;20278;-52
2024/03/26 08:15:22;;;;;;;7.47;3.47;;;;;;;;;;5135622;28;20035;-55
2024/03/26 08:17:48;;;;;;;9.50;3.17;;;;;;;;;;5130563;28;20027;-56
2024/03/26 08:20:14;;;;;;;8.18;3.33;;;;;;;;;;5136832;28;20054;-56
2024/03/26 08:22:39;;;;;;;8.32;2.83;;;;;;;;;;5136642;28;20054;-58
2024/03/26 08:25:05;;;;;;;12.90;3.42;;;;;;;;;;5136557;28;20019;-57
2024/03/26 08:27:31;;;;;;;9.15;3.70;;;;;;;;;;5133667;28;20039;-57
2024/03/26 08:29:58;;;;;;;10.00;2.85;;;;;;;;;;5127776;28;20028;-57
2024/03/26 08:32:23;;;;;;;10.57;3.25;;;;;;;;;;5136235;28;20085;-54
2024/03/26 08:34:48;;;;;;;11.47;3.63;;;;;;;;;;5118569;28;20055;-57
2024/03/26 08:37:14;;;;;;;10.07;3.15;;;;;;;;;;5124642;28;20020;-57
2024/03/26 08:39:39;;;;;;;8.10;3.90;;;;;;;;;;5133967;28;20039;-56
2024/03/26 08:42:05;;;;;;;8.10;3.43;;;;;;;;;;5136070;28;20023;-55
2024/03/26 08:44:30;;;;;;;10.03;3.07;;;;;;;;;;5135892;28;20367;-57
2024/03/26 08:46:55;;;;;;;17.63;3.67;;;;;;;;;;5127012;28;20104;-58
2024/03/26 08:49:21;;;;;;;8.20;3.60;;;;;;;;;;5131998;28;20028;-55
2024/03/26 08:51:48;;;;;;;7.90;3.47;;;;;;;;;;5134998;28;20024;-53
2024/03/26 08:54:14;;;;;;;6.77;3.73;;;;;;;;;;5127169;28;20062;-57
2024/03/26 08:56:39;;;;;;;14.67;3.60;;;;;;;;;;5111411;28;20273;-56
2024/03/26 08:59:05;;;;;;;6.57;3.50;;;;;;;;;;5134713;28;20282;-58
2024/03/26 09:01:31;;;;;;;9.98;3.45;;;;;;;;;;5135311;28;20102;-58
2024/03/26 09:03:57;;;;;;;6.22;3.10;;;;;;;;;;5135815;28;20040;-56
2024/03/26 09:06:22;;;;;;;8.57;3.70;;;;;;;;;;5133560;28;20088;-54
2024/03/26 09:08:49;;;;;;;8.50;3.53;;;;;;;;;;5133402;28;20069;-57
2024/03/26 09:11:14;;;;;;;12.15;3.58;;;;;;;;;;5129536;28;20039;-55
2024/03/26 09:13:41;;;;;;;15.03;3.50;;;;;;;;;;5113420;28;20030;-55
2024/03/26 09:16:07;;;;;;;10.33;4.20;;;;;;;;;;5130393;28;20030;-57
2024/03/26 09:18:33;;;;;;;11.35;3.72;;;;;;;;;;5135240;28;20256;-57
2024/03/26 09:20:59;;;;;;;5.93;3.13;;;;;;;;;;5127544;28;20042;-55
2024/03/26 09:23:24;;;;;;;6.88;3.33;;;;;;;;;;5135478;28;20028;-54
2024/03/26 09:25:50;;;;;;;8.07;3.17;;;;;;;;;;5132548;28;20036;-56
2024/03/26 09:28:15;;;;;;;10.13;3.70;;;;;;;;;;5135123;28;20091;-55
2024/03/26 09:30:42;;;;;;;10.05;3.72;;;;;;;;;;5134520;28;20072;-57
2024/03/26 09:33:08;;;;;;;12.43;3.90;;;;;;;;;;5133849;28;20024;-55
2024/03/26 09:35:33;;;;;;;8.63;3.73;;;;;;;;;;5127580;28;20290;-56
2024/03/26 09:37:59;;;;;;;13.87;4.10;;;;;;;;;;5116879;28;20268;-56
2024/03/26 09:40:24;;;;;;;8.07;3.77;;;;;;;;;;5127318;28;20265;-52
2024/03/26 09:42:50;;;;;;;8.90;3.50;;;;;;;;;;5132209;28;20027;-56
2024/03/26 09:45:18;;;;;;;10.70;3.83;;;;;;;;;;5130167;28;20035;-55
2024/03/26 09:47:45;;;;;;;14.57;4.30;;;;;;;;;;5126554;28;20306;-58
2024/03/26 09:50:10;;;;;;;;;;;;;;;;;;5135197;28;20287;-54
2024/03/26 09:52:38;;;;;;;10.67;3.67;;;;;;;;;;5135203;28;19915;-56
2024/03/26 09:55:05;;;;;;;7.70;3.80;;;;;;;;;;5116888;28;20313;-55
2024/03/26 09:57:30;;;;;;;15.07;3.93;;;;;;;;;;5128760;28;20276;-52
2024/03/26 09:59:56;;;;;;;6.87;3.27;;;;;;;;;;5132731;28;20267;-58
2024/03/26 10:02:21;;;;;;;13.00;3.77;;;;;;;;;;5135412;28;20081;-56
2024/03/26 10:04:47;;;;;;;15.63;3.85;;;;;;;;;;5134982;28;20549;-57
2024/03/26 10:07:12;;;;;;;10.57;4.20;;;;;;;;;;5134217;28;20040;-56
2024/03/26 10:09:37;;;;;;;7.53;3.73;;;;;;;;;;5135989;28;20437;-57
2024/03/26 10:12:04;;;;;;;16.30;4.03;;;;;;;;;;5139053;28;20028;-53
2024/03/26 10:14:29;;;;;;;10.63;4.05;;;;;;;;;;5139162;28;20035;-55
2024/03/26 10:16:57;;;;;;;9.33;4.20;;;;;;;;;;5136920;28;20433;-55
2024/03/26 10:19:22;;;;;;;10.40;4.47;;;;;;;;;;5136667;28;20031;-56
2024/03/26 10:21:47;;;;;;;11.80;4.40;;;;;;;;;;5138218;28;20274;-55
2024/03/26 10:24:13;;;;;;;11.18;4.65;;;;;;;;;;5138823;28;20068;-56
2024/03/26 10:26:39;;;;;;;13.65;4.95;;;;;;;;;;5099478;28;20055;-55
2024/03/26 10:29:04;;;;;;;12.87;4.73;;;;;;;;;;5132136;28;20026;-56
2024/03/26 10:31:30;;;;;;;14.60;6.78;;;;;;;;;;5132920;28;20028;-57
2024/03/26 10:33:56;;;;;;;15.13;5.97;;;;;;;;;;5138670;28;20031;-58
2024/03/26 10:36:21;;;;;;;16.95;5.97;;;;;;;;;;5138655;28;20027;-59
2024/03/26 10:38:47;;;;;;;12.57;6.60;;;;;;;;;;5136484;28;20034;-57
2024/03/26 10:41:20;;;;;;;19.20;6.53;;;;;;;;;;5133937;28;20016;-58
2024/03/26 10:43:46;;;;;;;15.33;5.47;;;;;;;;;;5138233;28;20031;-56
2024/03/26 10:46:12;;;;;;;12.43;5.18;;;;;;;;;;5138149;28;20285;-58
2024/03/26 10:48:38;;;;;;;12.43;5.57;;;;;;;;;;5128065;28;20028;-59
2024/03/26 10:51:04;;;;;;;15.90;6.22;;;;;;;;;;5135899;28;20035;-56
2024/03/26 10:53:30;;;;;;;11.95;5.90;;;;;;;;;;5137982;28;20059;-56
2024/03/26 10:55:58;;;;;;;16.98;5.63;;;;;;;;;;5137873;28;20083;-58
2024/03/26 10:58:23;;;;;;;14.60;6.67;;;;;;;;;;5121857;28;20032;-57
2024/03/26 11:00:50;;;;;;;11.40;5.90;;;;;;;;;;5128736;28;20342;-53
2024/03/26 11:03:16;;;;;;;13.05;5.32;;;;;;;;;;5137796;28;20036;-56
2024/03/26 11:05:41;;;;;;;12.55;6.35;;;;;;;;;;5138066;28;20088;-58
2024/03/26 11:08:16;;;;;;;15.20;6.33;;;;;;;;;;5135192;28;20045;-57
2024/03/26 11:11:01;;;;;;;11.70;6.00;;;;;;;;;;5135845;28;20041;-57
2024/03/26 11:13:37;;;;;;;12.50;6.23;;;;;;;;;;5137876;28;20274;-58
2024/03/26 11:16:03;;;;;;;12.85;5.47;;;;;;;;;;5128630;28;20608;-57
2024/03/26 11:18:32;;;;;;;18.20;6.15;;;;;;;;;;5130112;28;20031;-57
2024/03/26 11:21:04;;;;;;;14.57;6.03;;;;;;;;;;5131305;28;20038;-54
2024/03/26 11:23:33;;;;;;;13.53;5.53;;;;;;;;;;5137463;28;20260;-57
2024/03/26 11:25:58;;;;;;;17.77;6.17;;;;;;;;;;5137461;28;20327;-55
2024/03/26 11:28:25;;;;;;;11.63;5.83;;;;;;;;;;5119799;28;20272;-56
2024/03/26 11:30:50;;;;;;;17.43;6.33;;;;;;;;;;5135702;28;20087;-55
2024/03/26 11:33:26;;;;;;;13.40;5.65;;;;;;;;;;5133740;28;20259;-58
2024/03/26 11:35:52;;;;;;;13.40;5.43;;;;;;;;;;5135440;28;20036;-56
2024/03/26 11:38:17;;;;;;;9.82;4.85;;;;;;;;;;5135309;28;20282;-56
2024/03/26 11:40:51;;;;;;;12.33;5.67;;;;;;;;;;5134937;28;20107;-59
2024/03/26 11:43:18;;;;;;;11.87;5.97;;;;;;;;;;5130599;28;20031;-56
2024/03/26 11:45:43;;;;;;;23.27;5.88;;;;;;;;;;5133618;28;20275;-56
2024/03/26 11:48:10;;;;;;;18.10;6.55;;;;;;;;;;5134156;28;20036;-55
2024/03/26 11:50:35;;;;;;;9.90;4.90;;;;;;;;;;5136771;28;20042;-53
2024/03/26 11:53:01;;;;;;;9.27;5.00;;;;;;;;;;5136744;28;20260;-55
2024/03/26 11:55:27;;;;;;;12.02;6.10;;;;;;;;;;5118870;28;20023;-56
2024/03/26 11:57:53;;;;;;;9.23;4.60;;;;;;;;;;5137105;28;20039;-54
2024/03/26 12:00:18;;;;;;;;;;;;;;;;;;5136397;28;20036;-53
2024/03/26 12:02:44;;;;;;;8.47;4.30;;;;;;;;;;5136011;28;19908;-56
2024/03/26 12:05:10;;;;;;;9.65;4.82;;;;;;;;;;5135980;28;20034;-56
2024/03/26 12:07:35;;;;;;;12.43;4.57;;;;;;;;;;5135830;28;20020;-54
2024/03/26 12:10:01;;;;;;;11.07;4.43;;;;;;;;;;5136317;28;20039;-56
2024/03/26 12:12:26;;;;;;;10.17;4.30;;;;;;;;;;5117104;28;20024;-56
2024/03/26 12:14:52;;;;;;;12.93;4.97;;;;;;;;;;5117832;28;20020;-58
2024/03/26 12:17:18;;;;;;;12.93;3.97;;;;;;;;;;5132600;28;20043;-54
2024/03/26 12:19:46;;;;;;;8.20;4.53;;;;;;;;;;5134981;28;20027;-55
2024/03/26 12:22:16;;;;;;;8.23;4.40;;;;;;;;;;5133856;28;20042;-54
2024/03/26 12:24:41;;;;;;;11.27;4.33;;;;;;;;;;5118424;28;20252;-57
2024/03/26 12:27:07;;;;;;;10.13;4.18;;;;;;;;;;5130444;28;20279;-53
2024/03/26 12:29:32;;;;;;;9.57;4.40;;;;;;;;;;5132236;28;20032;-55
2024/03/26 12:31:58;;;;;;;10.70;4.37;;;;;;;;;;5128112;28;20084;-57
2024/03/26 12:34:25;;;;;;;12.33;4.30;;;;;;;;;;5130445;28;20039;-57
2024/03/26 12:36:50;;;;;;;12.75;4.63;;;;;;;;;;5136096;28;20276;-52
2024/03/26 12:39:16;;;;;;;9.80;4.43;;;;;;;;;;5131609;28;20032;-52
2024/03/26 12:41:41;;;;;;;13.80;4.80;;;;;;;;;;5126892;28;20035;-57
2024/03/26 12:44:11;;;;;;;16.52;4.72;;;;;;;;;;5135924;28;20028;-56
2024/03/26 12:46:37;;;;;;;10.97;4.90;;;;;;;;;;5135359;28;20057;-58
2024/03/26 12:49:05;;;;;;;8.30;3.97;;;;;;;;;;5125340;28;20280;-53
2024/03/26 12:51:32;;;;;;;13.87;4.63;;;;;;;;;;5131874;28;20024;-52
2024/03/26 12:54:01;;;;;;;11.02;4.88;;;;;;;;;;5135333;28;20297;-56
2024/03/26 12:56:26;;;;;;;10.37;4.40;;;;;;;;;;5134124;28;20044;-58
2024/03/26 12:58:52;;;;;;;10.40;4.10;;;;;;;;;;5135211;28;20283;-58
2024/03/26 13:01:17;;;;;;;11.23;4.53;;;;;;;;;;5135358;28;20035;-57
2024/03/26 13:03:42;;;;;;;10.35;4.05;;;;;;;;;;5133699;28;20079;-57
2024/03/26 13:06:08;;;;;;;8.23;3.70;;;;;;;;;;5135383;28;20046;-56
2024/03/26 13:08:33;;;;;;;9.82;4.78;;;;;;;;;;5131177;28;20015;-56
2024/03/26 13:11:03;;;;;;;10.67;4.43;;;;;;;;;;5134491;28;20039;-57
2024/03/26 13:13:29;;;;;;;9.77;4.23;;;;;;;;;;5134567;28;20028;-55
2024/03/26 13:15:55;;;;;;;10.03;4.70;;;;;;;;;;5134440;28;20255;-57
2024/03/26 13:18:20;;;;;;;16.00;4.30;;;;;;;;;;5135285;28;20274;-55
2024/03/26 13:20:46;;;;;;;13.63;4.03;;;;;;;;;;5125319;28;20077;-57
2024/03/26 13:23:12;;;;;;;8.52;4.20;;;;;;;;;;5135228;28;20049;-57
2024/03/26 13:25:38;;;;;;;7.13;3.25;;;;;;;;;;5133609;28;20031;-52
2024/03/26 13:28:03;;;;;;;9.57;3.38;;;;;;;;;;5134875;28;20053;-53
2024/03/26 13:30:29;;;;;;;12.95;4.82;;;;;;;;;;5116179;28;20059;-56
2024/03/26 13:32:54;;;;;;;9.55;4.35;;;;;;;;;;5129899;28;20049;-57
2024/03/26 13:35:20;;;;;;;5.68;3.25;;;;;;;;;;5133599;28;20035;-58
2024/03/26 13:37:45;;;;;;;9.07;3.23;;;;;;;;;;5131539;28;20031;-57
2024/03/26 13:40:11;;;;;;;10.47;3.90;;;;;;;;;;5134909;28;20031;-53
2024/03/26 13:42:36;;;;;;;9.95;4.25;;;;;;;;;;5134861;28;20028;-56
2024/03/26 13:45:02;;;;;;;7.75;3.80;;;;;;;;;;5133771;28;20090;-56
2024/03/26 13:47:27;;;;;;;8.50;3.50;;;;;;;;;;5133205;28;20040;-56
2024/03/26 13:49:53;;;;;;;8.68;3.83;;;;;;;;;;5126800;28;20035;-57
2024/03/26 13:52:18;;;;;;;8.80;3.77;;;;;;;;;;5133784;28;20032;-58
2024/03/26 13:54:43;;;;;;;10.97;5.63;;;;;;;;;;5135025;28;20038;-53
2024/03/26 13:57:08;;;;;;;10.80;4.78;;;;;;;;;;5133199;28;20019;-57
2024/03/26 13:59:34;;;;;;;9.88;4.63;;;;;;;;;;5131314;28;20043;-57
2024/03/26 14:02:00;;;;;;;11.82;4.63;;;;;;;;;;5130623;28;20031;-57
2024/03/26 14:04:25;;;;;;;11.07;4.33;;;;;;;;;;5134233;28;20032;-58
2024/03/26 14:06:50;;;;;;;6.87;4.00;;;;;;;;;;5134830;28;20062;-56
2024/03/26 14:09:15;;;;;;;9.27;3.77;;;;;;;;;;5134847;28;20038;-55
2024/03/26 14:11:41;;;;;;;12.63;4.17;;;;;;;;;;5122900;28;20260;-54
2024/03/26 14:14:07;;;;;;;11.37;4.20;;;;;;;;;;5133194;28;20051;-56
2024/03/26 14:16:32;;;;;;;9.10;4.63;;;;;;;;;;5132746;28;20035;-55
2024/03/26 14:18:58;;;;;;;7.82;4.10;;;;;;;;;;5134549;28;20343;-55
2024/03/26 14:21:24;;;;;;;10.40;4.32;;;;;;;;;;5133929;28;20035;-55
2024/03/26 14:23:49;;;;;;;10.82;3.95;;;;;;;;;;5134856;28;20099;-55
2024/03/26 14:26:15;;;;;;;9.30;3.70;;;;;;;;;;5134611;28;20032;-58
2024/03/26 14:28:40;;;;;;;12.18;4.40;;;;;;;;;;5106820;28;20028;-56